createdAt,value
2023-01-13T00:02:08.386Z,14.10
2023-01-13T00:05:57.616Z,16.40
2023-01-13T00:09:46.680Z,15.90
2023-01-13T00:13:36.157Z,21.50
2023-01-13T00:17:25.224Z,20.90
2023-01-13T00:21:14.566Z,17.10
2023-01-13T00:25:03.640Z,20.40
2023-01-13T00:28:52.759Z,15.10
2023-01-13T00:32:41.848Z,16.50
2023-01-13T00:36:36.579Z,14.40
2023-01-13T00:40:25.701Z,13.40
2023-01-13T00:44:14.735Z,15.80
2023-01-13T00:48:03.798Z,14.40
2023-01-13T00:51:58.917Z,11.30
2023-01-13T00:55:48.088Z,12.00
2023-01-13T00:59:37.234Z,12.50
2023-01-13T01:03:29.326Z,11.00
2023-01-13T01:07:18.461Z,11.00
2023-01-13T01:11:07.570Z,11.20
2023-01-13T01:14:56.642Z,15.10
2023-01-13T01:18:45.681Z,14.40
2023-01-13T01:22:34.913Z,15.20
2023-01-13T01:26:23.989Z,14.00
2023-01-13T01:30:13.104Z,13.20
2023-01-13T01:34:02.153Z,13.40
2023-01-13T01:37:51.196Z,15.80
2023-01-13T01:41:40.310Z,13.50
2023-01-13T01:45:50.742Z,15.60
2023-01-13T01:49:39.894Z,18.50
2023-01-13T01:53:29.100Z,16.90
2023-01-13T01:57:18.172Z,17.70
2023-01-13T02:01:07.708Z,16.30
2023-01-13T02:04:56.906Z,14.70
2023-01-13T02:08:45.988Z,14.90
2023-01-13T02:12:50.294Z,15.30
2023-01-13T02:16:48.336Z,15.40
2023-01-13T02:20:35.793Z,15.40
2023-01-13T02:24:23.658Z,15.00
2023-01-13T02:28:24.591Z,18.10
2023-01-13T02:32:13.746Z,13.60
2023-01-13T02:36:08.563Z,14.60
2023-01-13T02:40:03.576Z,15.00
2023-01-13T02:43:57.245Z,15.20
2023-01-13T02:47:46.330Z,15.50
2023-01-13T02:51:50.395Z,14.60
2023-01-13T02:55:42.268Z,13.60
2023-01-13T02:59:31.337Z,13.30
2023-01-13T03:03:20.438Z,14.30
2023-01-13T03:07:12.582Z,14.50
2023-01-13T03:11:20.018Z,15.70
2023-01-13T03:15:11.606Z,14.60
2023-01-13T03:19:12.974Z,13.20
2023-01-13T03:23:03.499Z,13.70
2023-01-13T03:27:14.082Z,14.40
2023-01-13T03:31:27.678Z,13.50
2023-01-13T03:35:28.716Z,14.40
2023-01-13T03:39:22.963Z,13.50
2023-01-13T03:43:20.983Z,13.20
2023-01-13T03:47:12.682Z,14.40
2023-01-13T03:51:11.129Z,14.10
2023-01-13T03:55:00.185Z,13.80
2023-01-13T03:58:55.311Z,14.80
2023-01-13T04:02:53.736Z,16.60
2023-01-13T04:06:51.743Z,16.80
2023-01-13T04:10:46.887Z,16.30
2023-01-13T04:14:35.909Z,16.90
2023-01-13T04:18:24.991Z,16.10
2023-01-13T04:22:14.071Z,15.50
2023-01-13T04:26:03.197Z,14.10
2023-01-13T04:29:52.381Z,16.10
2023-01-13T04:33:41.481Z,15.70
2023-01-13T04:37:30.786Z,16.30
2023-01-13T04:41:12.538Z,16.60
2023-01-13T04:44:55.961Z,15.90
2023-01-13T04:48:45.163Z,16.20
2023-01-13T04:52:34.221Z,17.30
2023-01-13T04:56:23.288Z,18.00
2023-01-13T05:00:12.529Z,19.40
2023-01-13T05:04:01.782Z,19.70
2023-01-13T05:07:50.889Z,19.70
2023-01-13T05:11:41.133Z,22.80
2023-01-13T05:15:28.772Z,21.40
2023-01-13T05:19:17.818Z,22.70
2023-01-13T05:23:05.513Z,18.50
2023-01-13T05:26:54.579Z,18.30
2023-01-13T05:30:43.809Z,18.30
2023-01-13T05:34:32.907Z,19.60
2023-01-13T05:38:22.024Z,22.10
2023-01-13T05:42:09.873Z,17.20
2023-01-13T05:45:58.998Z,18.90
2023-01-13T05:49:48.224Z,17.70
2023-01-13T05:53:37.361Z,18.50
2023-01-13T05:57:26.487Z,17.70
2023-01-13T06:01:15.850Z,20.70
2023-01-13T06:05:05.063Z,17.70
2023-01-13T06:08:54.124Z,17.70
2023-01-13T06:12:43.164Z,16.70
2023-01-13T06:16:32.330Z,18.00
2023-01-13T06:20:21.417Z,18.30
2023-01-13T06:24:10.491Z,13.40
2023-01-13T06:32:06.203Z,17.50
2023-01-13T06:35:55.283Z,21.10
2023-01-13T06:39:44.357Z,21.10
2023-01-13T06:43:36.335Z,20.80
2023-01-13T06:47:25.882Z,20.00
2023-01-13T06:51:14.956Z,18.20
2023-01-13T06:55:04.085Z,21.50
2023-01-13T06:58:53.113Z,21.20
2023-01-13T07:02:42.312Z,22.90
2023-01-13T07:06:31.427Z,24.20
2023-01-13T07:10:20.499Z,24.90
2023-01-13T07:14:08.083Z,24.20
2023-01-13T07:17:57.212Z,22.30
2023-01-13T07:21:46.323Z,25.30
2023-01-13T07:25:35.404Z,21.30
2023-01-13T07:29:24.425Z,20.40
2023-01-13T07:33:13.583Z,21.60
2023-01-13T07:37:05.666Z,19.00
2023-01-13T07:40:54.841Z,17.20
2023-01-13T07:44:46.548Z,18.20
2023-01-13T07:48:35.692Z,18.70
2023-01-13T07:52:24.821Z,18.50
2023-01-13T07:56:11.230Z,19.50
2023-01-13T08:00:00.519Z,19.80
2023-01-13T08:03:49.687Z,15.90
2023-01-13T08:07:38.729Z,20.10
2023-01-13T08:11:27.835Z,19.60
2023-01-13T08:15:16.942Z,17.80
2023-01-13T08:19:06.017Z,16.20
2023-01-13T08:22:55.087Z,16.00
2023-01-13T08:26:44.186Z,16.70
2023-01-13T08:30:33.328Z,15.60
2023-01-13T08:34:22.522Z,15.20
2023-01-13T08:38:11.597Z,15.70
2023-01-13T08:42:16.155Z,16.20
2023-01-13T08:46:05.597Z,14.60
2023-01-13T08:49:54.808Z,22.70
2023-01-13T08:53:43.911Z,19.00
2023-01-13T08:57:33.366Z,18.70
2023-01-13T09:01:22.622Z,16.00
2023-01-13T09:05:17.962Z,14.90
2023-01-13T09:09:07.063Z,16.10
2023-01-13T09:12:54.644Z,16.80
2023-01-13T09:16:43.712Z,16.70
2023-01-13T09:20:32.752Z,17.20
2023-01-13T09:24:21.871Z,14.40
2023-01-13T09:28:10.972Z,14.40
2023-01-13T09:32:00.084Z,18.70
2023-01-13T09:35:49.435Z,35.50
2023-01-13T09:39:38.753Z,17.50
2023-01-13T09:43:32.097Z,13.20
2023-01-13T09:47:18.845Z,15.40
2023-01-13T09:51:06.611Z,14.10
2023-01-13T09:55:01.497Z,13.80
2023-01-13T09:58:50.614Z,14.30
2023-01-13T10:02:42.288Z,12.40
2023-01-13T10:06:37.439Z,11.60
2023-01-13T10:10:25.270Z,12.50
2023-01-13T10:14:17.132Z,12.20
2023-01-13T10:18:15.083Z,13.80
2023-01-13T10:22:13.203Z,13.80
2023-01-13T10:26:10.360Z,13.20
2023-01-13T10:30:05.411Z,14.30
2023-01-13T10:34:00.245Z,12.40
2023-01-13T10:37:59.871Z,15.50
2023-01-13T10:41:55.222Z,12.10
2023-01-13T10:45:47.169Z,12.60
2023-01-13T10:49:36.368Z,11.50
2023-01-13T10:53:37.732Z,11.90
2023-01-13T10:57:27.101Z,12.60
2023-01-13T11:01:31.490Z,11.40
2023-01-13T11:05:23.544Z,12.50
2023-01-13T11:09:24.719Z,11.60
2023-01-13T11:13:32.166Z,12.20
2023-01-13T11:17:21.308Z,11.10
2023-01-13T11:21:19.578Z,13.00
2023-01-13T11:25:26.918Z,11.80
2023-01-13T11:29:21.946Z,13.40
2023-01-13T11:33:11.052Z,12.60
2023-01-13T11:37:05.883Z,13.20
2023-01-13T11:41:16.260Z,10.30
2023-01-13T11:45:05.359Z,12.10
2023-01-13T11:48:53.889Z,12.30
2023-01-13T11:52:52.119Z,11.60
2023-01-13T11:56:46.968Z,14.10
2023-01-13T12:00:38.782Z,12.10
2023-01-13T12:04:33.857Z,12.30
2023-01-13T12:08:41.325Z,11.20
2023-01-13T12:12:42.631Z,10.30
2023-01-13T12:16:31.769Z,11.10
2023-01-13T12:20:24.096Z,12.40
2023-01-13T12:24:34.249Z,9.70
2023-01-13T12:28:37.343Z,10.90
2023-01-13T12:32:29.213Z,11.40
2023-01-13T12:36:18.322Z,9.80
2023-01-13T12:40:22.688Z,8.80
2023-01-13T12:44:39.027Z,9.00
2023-01-13T12:48:34.205Z,9.90
2023-01-13T12:52:35.094Z,9.60
2023-01-13T12:56:26.970Z,11.40
2023-01-13T13:00:19.421Z,11.50
2023-01-13T13:04:08.570Z,10.30
2023-01-13T13:08:00.484Z,9.50
2023-01-13T13:11:57.143Z,10.00
2023-01-13T13:16:04.493Z,9.60
2023-01-13T13:19:59.387Z,9.00
2023-01-13T13:23:48.537Z,8.10
2023-01-13T13:27:37.430Z,8.50
2023-01-13T13:31:31.610Z,7.30
2023-01-13T13:35:31.644Z,8.70
2023-01-13T13:39:34.621Z,8.80
2023-01-13T13:43:21.964Z,9.80
2023-01-13T13:47:24.899Z,8.40
2023-01-13T13:50:57.693Z,8.10
2023-01-13T13:54:45.776Z,8.70
2023-01-13T13:58:31.393Z,8.10
2023-01-13T14:02:14.988Z,7.90
2023-01-13T14:06:08.917Z,8.20
2023-01-13T14:09:58.001Z,7.40
2023-01-13T14:13:35.967Z,7.70
2023-01-13T14:17:18.205Z,8.80
2023-01-13T14:20:57.787Z,11.10
2023-01-13T14:24:58.996Z,9.00
2023-01-13T14:28:50.654Z,10.70
2023-01-13T14:32:39.733Z,14.30
2023-01-13T14:36:43.798Z,10.70
2023-01-13T14:40:32.937Z,11.30
2023-01-13T14:44:24.694Z,9.40
2023-01-13T14:48:22.993Z,10.50
2023-01-13T14:52:12.129Z,7.90
2023-01-13T14:56:12.594Z,8.10
2023-01-13T15:00:13.812Z,8.30
2023-01-13T15:04:05.685Z,8.30
2023-01-13T15:07:54.800Z,8.20
2023-01-13T15:11:50.177Z,7.10
2023-01-13T15:15:39.338Z,8.10
2023-01-13T15:19:28.542Z,9.90
2023-01-13T15:23:20.654Z,9.40
2023-01-13T15:27:21.129Z,8.40
2023-01-13T15:31:16.285Z,7.70
2023-01-13T15:35:05.355Z,9.20
2023-01-13T15:38:57.072Z,19.20
2023-01-13T15:42:44.741Z,12.00
2023-01-13T15:46:32.509Z,10.80
2023-01-13T15:50:21.743Z,10.50
2023-01-13T15:54:10.857Z,12.50
2023-01-13T15:58:02.704Z,13.40
2023-01-13T16:01:51.811Z,18.70
2023-01-13T16:05:40.921Z,18.80
2023-01-13T16:09:30.014Z,24.90
2023-01-13T16:13:19.116Z,31.60
2023-01-13T16:17:11.003Z,37.50
2023-01-13T16:21:00.226Z,33.50
2023-01-13T16:24:49.282Z,34.10
2023-01-13T16:28:38.414Z,36.80
2023-01-13T16:32:27.573Z,37.20
2023-01-13T16:36:16.636Z,35.40
2023-01-13T16:40:05.727Z,35.30
2023-01-13T16:43:54.894Z,35.10
2023-01-13T16:47:43.979Z,37.40
2023-01-13T16:51:36.225Z,36.00
2023-01-13T16:55:25.311Z,32.60
2023-01-13T16:59:17.404Z,21.20
2023-01-13T17:03:06.483Z,23.70
2023-01-13T17:06:58.071Z,17.80
2023-01-13T17:10:47.246Z,19.40
2023-01-13T17:14:36.409Z,19.80
2023-01-13T17:18:25.551Z,18.10
2023-01-13T17:22:14.920Z,19.90
2023-01-13T17:26:03.989Z,18.00
2023-01-13T17:29:56.250Z,16.60
2023-01-13T17:33:45.335Z,15.50
2023-01-13T17:37:34.430Z,15.10
2023-01-13T17:41:23.611Z,13.00
2023-01-13T17:45:15.522Z,12.50
2023-01-13T17:49:04.640Z,11.20
2023-01-13T17:52:53.848Z,35.30
2023-01-13T17:56:42.957Z,28.30
2023-01-13T18:00:32.022Z,22.80
2023-01-13T18:04:13.694Z,21.60
2023-01-13T18:08:02.813Z,18.30
2023-01-13T18:11:51.922Z,17.10
2023-01-13T18:15:41.048Z,16.30
2023-01-13T18:19:28.593Z,17.40
2023-01-13T18:23:16.329Z,17.90
2023-01-13T18:27:09.604Z,16.40
2023-01-13T18:30:58.752Z,14.60
2023-01-13T18:34:48.001Z,11.90
2023-01-13T18:38:41.435Z,13.00
2023-01-13T18:42:29.221Z,10.90
2023-01-13T18:46:18.437Z,10.90
2023-01-13T18:50:07.587Z,10.70
2023-01-13T18:53:56.777Z,9.40
2023-01-13T18:57:45.895Z,10.30
2023-01-13T19:01:43.992Z,11.80
2023-01-13T19:05:33.431Z,12.30
2023-01-13T19:09:22.555Z,10.60
2023-01-13T19:13:11.681Z,10.80
2023-01-13T19:17:00.755Z,10.60
2023-01-13T19:20:50.135Z,13.80
2023-01-13T19:24:39.386Z,14.30
2023-01-13T19:28:28.591Z,20.10
2023-01-13T19:32:17.686Z,21.60
2023-01-13T19:36:07.094Z,20.90
2023-01-13T19:39:56.207Z,21.40
2023-01-13T19:43:44.006Z,23.20
2023-01-13T19:47:33.128Z,20.80
2023-01-13T19:51:22.257Z,17.50
2023-01-13T19:55:11.491Z,16.60
2023-01-13T19:59:00.596Z,15.10
2023-01-13T20:02:49.844Z,20.20
2023-01-13T20:06:39.092Z,18.60
2023-01-13T20:10:28.269Z,18.50
2023-01-13T20:14:17.414Z,17.30
2023-01-13T20:18:06.474Z,19.50
2023-01-13T20:21:55.594Z,18.80
2023-01-13T20:25:44.887Z,17.90
2023-01-13T20:29:34.107Z,16.50
2023-01-13T20:33:23.198Z,16.70
2023-01-13T20:37:12.331Z,17.40
2023-01-13T20:41:01.442Z,17.30
2023-01-13T20:44:50.519Z,13.60
2023-01-13T20:48:39.621Z,14.20
2023-01-13T20:52:31.778Z,15.10
2023-01-13T20:56:20.994Z,12.70
2023-01-13T21:00:10.126Z,11.40
2023-01-13T21:03:59.326Z,19.30
2023-01-13T21:07:48.463Z,18.80
2023-01-13T21:11:41.791Z,25.00
2023-01-13T21:15:39.860Z,26.90
2023-01-13T21:19:28.914Z,24.20
2023-01-13T21:23:17.994Z,23.80
2023-01-13T21:27:07.168Z,25.60
2023-01-13T21:30:56.268Z,29.70
2023-01-13T21:34:45.305Z,30.50
2023-01-13T21:38:34.479Z,26.40
2023-01-13T21:42:22.199Z,25.60
2023-01-13T21:46:10.162Z,28.30
2023-01-13T21:49:59.272Z,22.80
2023-01-13T21:53:48.527Z,24.10
2023-01-13T21:57:37.743Z,23.20
2023-01-13T22:01:26.953Z,25.30
2023-01-13T22:05:16.128Z,22.70
2023-01-13T22:09:05.243Z,22.80
2023-01-13T22:12:54.482Z,21.90
2023-01-13T22:16:43.603Z,20.50
2023-01-13T22:20:32.719Z,24.50
2023-01-13T22:24:21.948Z,24.60
2023-01-13T22:28:11.238Z,22.30
2023-01-13T22:32:00.397Z,23.90
2023-01-13T22:35:49.580Z,20.50
2023-01-13T22:39:38.645Z,20.20
2023-01-13T22:43:27.665Z,22.10
2023-01-13T22:47:16.783Z,22.60
2023-01-13T22:51:05.971Z,22.20
2023-01-13T22:54:55.072Z,23.00
2023-01-13T22:58:44.242Z,24.40
2023-01-13T23:02:33.333Z,26.70
2023-01-13T23:06:22.412Z,28.40
2023-01-13T23:10:11.458Z,28.70
2023-01-13T23:14:00.594Z,25.50
2023-01-13T23:17:49.696Z,26.20
2023-01-13T23:21:44.556Z,25.00
2023-01-13T23:25:33.633Z,26.60
2023-01-13T23:29:22.772Z,25.90
2023-01-13T23:33:11.820Z,27.70
2023-01-13T23:37:00.948Z,26.30
2023-01-13T23:40:50.213Z,23.80
2023-01-13T23:44:39.287Z,25.60
2023-01-13T23:48:28.515Z,25.30
2023-01-13T23:52:17.549Z,24.30
2023-01-13T23:56:06.691Z,24.20
2023-01-13T23:59:48.388Z,24.90
